Time;durP1;ratioP1;P1;durP2;ratioP2;P2;SDS_P1;SDS_P2;PMS_P1;PMS_P2;Temp;Humidity;BMP_temperature;BMP_pressure;BME280_temperature;BME280_humidity;BME280_pressure;Samples;Min_cycle;Max_cycle;Signal;HPM_P1;HPM_P2
2022/05/02 00:00:58;;;;;;;3.40;2.50;;;;;;;9.13;69.43;96695.03;4993218;28;20029;-66
2022/05/02 00:03:25;;;;;;;3.53;2.72;;;;;;;9.05;69.84;96697.00;4993114;28;20026;-65
2022/05/02 00:05:51;;;;;;;10.05;3.20;;;;;;;9.06;69.84;96694.34;4993145;28;20037;-62
2022/05/02 00:08:17;;;;;;;3.33;2.70;;;;;;;8.96;69.85;96695.50;4993359;28;20113;-65
2022/05/02 00:10:42;;;;;;;4.97;2.80;;;;;;;9.00;70.48;96699.72;4993376;28;20057;-62
2022/05/02 00:13:09;;;;;;;8.05;2.63;;;;;;;8.95;70.49;96701.63;4993135;28;20472;-63
2022/05/02 00:15:36;;;;;;;5.25;2.70;;;;;;;8.94;70.31;96707.75;4993153;28;20125;-63
2022/05/02 00:18:02;;;;;;;3.45;2.95;;;;;;;8.94;70.80;96707.75;4993204;28;20140;-64
2022/05/02 00:20:36;;;;;;;3.67;2.60;;;;;;;8.92;70.87;96704.34;4993125;28;20487;-65
2022/05/02 00:23:05;;;;;;;5.55;2.80;;;;;;;8.91;70.94;96706.06;4993198;28;20022;-65
2022/05/02 00:25:32;;;;;;;7.07;2.83;;;;;;;8.89;70.65;96709.63;4993012;28;20029;-63
2022/05/02 00:27:58;;;;;;;3.55;2.92;;;;;;;8.89;70.50;96709.63;4996469;28;20350;-65
2022/05/02 00:30:24;;;;;;;6.43;2.72;;;;;;;8.85;70.52;96712.34;4996533;28;20488;-62
2022/05/02 00:32:50;;;;;;;5.07;2.75;;;;;;;8.77;70.94;96701.28;4996554;28;20076;-63
2022/05/02 00:35:16;;;;;;;4.97;2.40;;;;;;;8.69;71.19;96700.63;4996465;28;20053;-64
2022/05/02 00:37:43;;;;;;;4.75;2.97;;;;;;;8.68;71.47;96704.13;4996333;28;20023;-63
2022/05/02 00:40:11;;;;;;;4.57;2.80;;;;;;;8.70;71.60;96697.13;4996192;28;20042;-65
2022/05/02 00:42:37;;;;;;;3.95;2.83;;;;;;;8.72;71.88;96690.09;4996053;28;20436;-65
2022/05/02 00:45:10;;;;;;;3.20;2.42;;;;;;;8.54;71.95;96688.84;4996198;28;20023;-64
2022/05/02 00:47:36;;;;;;;5.03;3.47;;;;;;;8.47;72.13;96695.97;4996373;28;20131;-63
2022/05/02 00:50:04;;;;;;;8.38;3.47;;;;;;;8.47;72.37;96691.63;4996179;28;20113;-62
2022/05/02 00:52:30;;;;;;;2.85;2.63;;;;;;;8.45;72.48;96692.53;4995945;28;20461;-65
2022/05/02 00:54:56;;;;;;;3.67;2.70;;;;;;;8.38;72.55;96686.66;4995988;28;20259;-64
2022/05/02 00:57:22;;;;;;;3.47;2.97;;;;;;;8.36;72.89;96682.38;4996086;28;20026;-63
2022/05/02 00:59:48;;;;;;;4.38;3.20;;;;;;;8.28;72.78;96677.38;4996084;28;20022;-64
2022/05/02 01:02:15;;;;;;;6.13;2.88;;;;;;;8.31;72.75;96683.34;4995987;28;20108;-64
2022/05/02 01:04:42;;;;;;;6.35;3.10;;;;;;;8.25;73.28;96677.44;4995875;28;20029;-66
2022/05/02 01:07:20;;;;;;;8.10;2.88;;;;;;;8.28;73.16;96675.59;4995808;28;20447;-66
2022/05/02 01:09:49;;;;;;;4.20;2.83;;;;;;;8.29;73.55;96673.84;4996013;28;20030;-65
2022/05/02 01:12:21;;;;;;;6.13;2.80;;;;;;;8.31;73.36;96672.91;4995803;28;20022;-63
2022/05/02 01:14:49;;;;;;;4.43;2.78;;;;;;;8.36;73.41;96672.78;4995838;28;20038;-66
2022/05/02 01:17:15;;;;;;;3.83;2.95;;;;;;;8.39;73.24;96670.09;4995632;28;20469;-65
2022/05/02 01:19:41;;;;;;;3.58;3.08;;;;;;;8.40;72.94;96671.81;4995563;28;20026;-66
2022/05/02 01:22:07;;;;;;;8.05;3.08;;;;;;;8.44;72.32;96665.63;4995683;28;20048;-64
2022/05/02 01:24:42;;;;;;;8.95;5.60;;;;;;;8.46;72.19;96671.63;4995687;28;20045;-63
2022/05/02 01:27:09;;;;;;;8.52;4.47;;;;;;;8.43;72.19;96669.13;4995515;28;20033;-63
2022/05/02 01:29:36;;;;;;;5.90;3.40;;;;;;;8.43;72.23;96660.47;4995344;28;20033;-63
2022/05/02 01:32:06;;;;;;;7.25;4.25;;;;;;;8.43;72.28;96658.69;4995360;28;20481;-66
2022/05/02 01:34:35;;;;;;;6.47;3.47;;;;;;;8.28;72.71;96665.16;4995232;28;20026;-63
2022/05/02 01:37:02;;;;;;;6.22;3.55;;;;;;;8.27;73.03;96660.00;4995337;28;20027;-65
2022/05/02 01:39:29;;;;;;;7.78;3.60;;;;;;;8.22;72.93;96658.38;4994507;28;20018;-65
2022/05/02 01:41:55;;;;;;;3.83;2.85;;;;;;;8.14;72.80;96656.88;4994847;28;20125;-66
2022/05/02 01:44:22;;;;;;;6.13;3.28;;;;;;;8.10;72.89;96653.50;4995188;28;20105;-66
2022/05/02 01:46:47;;;;;;;5.88;2.90;;;;;;;8.09;73.03;96644.81;4994956;28;20457;-63
2022/05/02 01:49:13;;;;;;;4.80;3.67;;;;;;;8.01;73.10;96646.75;4995101;28;20061;-64
2022/05/02 01:51:38;;;;;;;4.68;3.55;;;;;;;7.97;73.34;96634.72;4995048;28;20350;-64
2022/05/02 01:54:04;;;;;;;4.65;3.53;;;;;;;7.95;72.78;96637.34;4994905;28;20045;-63
2022/05/02 01:56:30;;;;;;;11.60;3.78;;;;;;;7.89;72.46;96636.69;4994955;28;20031;-64
2022/05/02 01:58:56;;;;;;;4.88;3.15;;;;;;;7.87;72.35;96628.03;4994931;28;20117;-66
2022/05/02 02:01:21;;;;;;;7.00;3.50;;;;;;;7.76;73.26;96628.31;4994829;28;20031;-65
2022/05/02 02:03:47;;;;;;;6.65;4.40;;;;;;;7.71;73.22;96621.47;4994700;28;20030;-63
2022/05/02 02:06:13;;;;;;;3.55;3.15;;;;;;;7.55;73.15;96622.75;4994709;28;20062;-64
2022/05/02 02:08:39;;;;;;;5.38;3.40;;;;;;;7.44;73.31;96623.03;4994687;28;20053;-65
2022/05/02 02:11:08;;;;;;;5.22;4.00;;;;;;;7.40;73.21;96614.41;4994700;28;20449;-66
2022/05/02 02:13:35;;;;;;;6.25;4.03;;;;;;;7.34;73.32;96614.56;4994578;28;20026;-65
2022/05/02 02:16:01;;;;;;;10.88;3.83;;;;;;;7.27;73.18;96616.47;4994509;28;20491;-63
2022/05/02 02:18:27;;;;;;;6.60;4.30;;;;;;;7.20;73.05;96613.13;4994574;28;20109;-65
2022/05/02 02:20:54;;;;;;;8.20;4.50;;;;;;;7.11;73.59;96615.09;4994507;28;20097;-66
2022/05/02 02:23:22;;;;;;;9.98;3.97;;;;;;;7.11;73.31;96607.31;4994412;28;20053;-64
2022/05/02 02:25:47;;;;;;;6.32;4.43;;;;;;;7.03;73.23;96607.47;4994299;28;20034;-63
2022/05/02 02:28:15;;;;;;;8.02;4.70;;;;;;;6.92;73.67;96605.97;4994387;28;20019;-65
2022/05/02 02:30:41;;;;;;;6.53;4.20;;;;;;;6.89;73.42;96607.81;4994192;28;20097;-66
2022/05/02 02:33:07;;;;;;;6.15;4.30;;;;;;;6.88;73.41;96609.53;4994193;28;20030;-63
2022/05/02 02:35:33;;;;;;;7.15;4.20;;;;;;;6.88;72.97;96606.94;4994224;28;20037;-65
2022/05/02 02:37:58;;;;;;;6.32;4.45;;;;;;;6.81;73.14;96592.38;4994193;28;20030;-63
2022/05/02 02:40:24;;;;;;;6.82;4.25;;;;;;;6.74;73.44;96594.22;4994133;28;20034;-65
2022/05/02 02:42:50;;;;;;;6.72;4.43;;;;;;;6.68;73.45;96592.63;4993798;28;20054;-63
2022/05/02 02:45:16;;;;;;;6.00;3.92;;;;;;;6.51;73.95;96592.13;4994013;28;20477;-64
2022/05/02 02:47:43;;;;;;;5.95;3.95;;;;;;;6.45;73.95;96580.13;4994125;28;20033;-65
2022/05/02 02:50:09;;;;;;;4.90;3.75;;;;;;;6.38;73.84;96583.75;4993794;28;20041;-63
2022/05/02 02:52:35;;;;;;;5.57;3.85;;;;;;;6.30;73.91;96576.94;4993944;28;20027;-63
2022/05/02 02:55:01;;;;;;;4.40;3.80;;;;;;;6.25;73.88;96576.19;4993875;28;20382;-63
2022/05/02 02:57:27;;;;;;;5.53;3.53;;;;;;;6.20;73.55;96580.59;4976396;28;20030;-64
2022/05/02 02:59:53;;;;;;;11.23;4.00;;;;;;;6.17;73.49;96568.53;4993791;28;20538;-63
2022/05/02 03:02:19;;;;;;;6.97;3.38;;;;;;;6.17;73.03;96575.50;4993823;28;20113;-62
2022/05/02 03:07:30;;;;;;;5.40;3.67;;;;;;;5.99;75.40;96580.09;4993771;28;20461;-63
2022/05/02 03:09:58;;;;;;;6.53;4.03;;;;;;;5.93;76.29;96575.88;4993667;28;20109;-63
2022/05/02 03:12:23;;;;;;;4.65;3.60;;;;;;;5.93;76.52;96573.28;4993745;28;20481;-65
2022/05/02 03:14:49;;;;;;;4.75;3.50;;;;;;;5.87;75.52;96575.16;4993650;28;20084;-63
2022/05/02 03:17:15;;;;;;;6.07;3.40;;;;;;;5.86;74.81;96576.03;4993453;28;20400;-63
2022/05/02 03:19:40;;;;;;;6.65;3.40;;;;;;;5.81;75.08;96586.53;4993509;28;20462;-63
2022/05/02 03:22:06;;;;;;;11.27;3.78;;;;;;;5.80;74.95;96585.66;4993569;28;20057;-62
2022/05/02 03:24:32;;;;;;;3.78;2.80;;;;;;;5.79;74.81;96578.75;4993691;28;20030;-65
2022/05/02 03:26:58;;;;;;;4.60;3.30;;;;;;;5.79;74.89;96590.88;4993527;28;20076;-63
2022/05/02 03:29:23;;;;;;;5.70;3.78;;;;;;;5.83;75.16;96592.53;4993453;28;20026;-62
2022/05/02 03:31:49;;;;;;;5.28;3.60;;;;;;;5.88;75.15;96595.03;4993700;28;20432;-64
2022/05/02 03:34:14;;;;;;;5.13;3.30;;;;;;;5.93;74.92;96581.09;4993525;28;20034;-65
2022/05/02 03:36:40;;;;;;;7.03;3.85;;;;;;;6.05;75.04;96589.56;4993480;28;20378;-64
2022/05/02 03:39:06;;;;;;;5.97;3.67;;;;;;;6.14;74.85;96591.13;4993399;28;20031;-64
2022/05/02 03:41:32;;;;;;;5.43;3.25;;;;;;;6.22;75.00;96594.44;4993140;28;20115;-65
2022/05/02 03:43:58;;;;;;;7.32;3.47;;;;;;;6.33;74.28;96591.63;4993401;28;20026;-63
2022/05/02 03:46:24;;;;;;;9.10;3.45;;;;;;;6.30;74.22;96584.72;4993428;28;20422;-63
2022/05/02 03:48:50;;;;;;;5.55;3.30;;;;;;;6.37;74.14;96598.47;4993442;28;20026;-64
2022/05/02 03:51:15;;;;;;;3.70;3.03;;;;;;;6.57;73.31;96595.44;4993406;28;20023;-62
2022/05/02 03:53:41;;;;;;;5.88;3.03;;;;;;;7.07;72.77;96601.31;4993355;28;20152;-65
2022/05/02 03:56:06;;;;;;;6.88;3.08;;;;;;;7.61;71.26;96593.94;4975938;28;20445;-64
2022/05/02 03:58:32;;;;;;;3.75;2.70;;;;;;;8.15;69.80;96591.69;4993247;28;20101;-65
2022/05/02 04:00:57;;;;;;;3.33;3.03;;;;;;;8.57;68.22;96594.91;4993592;28;20027;-64
2022/05/02 04:03:23;;;;;;;2.80;2.15;;;;;;;8.99;66.69;96591.06;4997028;28;20077;-63
2022/05/02 04:05:49;;;;;;;3.33;2.78;;;;;;;9.29;65.50;96590.13;4996948;28;20054;-63
2022/05/02 04:08:15;;;;;;;4.38;2.35;;;;;;;9.46;63.36;96585.22;4996991;28;20022;-64
2022/05/02 04:10:41;;;;;;;4.05;2.85;;;;;;;9.74;63.08;96591.28;4996809;28;20022;-63
2022/05/02 04:13:07;;;;;;;4.53;2.83;;;;;;;9.99;61.55;96586.06;4996900;28;20026;-65
2022/05/02 04:15:34;;;;;;;2.78;2.47;;;;;;;10.23;62.21;96582.63;4996841;28;20049;-64
2022/05/02 04:17:59;;;;;;;5.90;2.83;;;;;;;10.51;62.13;96589.53;4996815;28;20085;-62
2022/05/02 04:20:25;;;;;;;3.15;2.85;;;;;;;10.72;61.97;96585.22;4996809;28;20460;-64
2022/05/02 04:22:51;;;;;;;3.50;2.63;;;;;;;11.08;61.13;96589.09;4996695;28;20022;-63
2022/05/02 04:25:17;;;;;;;3.05;2.47;;;;;;;11.42;59.96;96575.56;4996584;28;20037;-62
2022/05/02 04:27:43;;;;;;;3.83;2.63;;;;;;;11.81;59.37;96584.47;4996699;28;20424;-64
2022/05/02 04:30:10;;;;;;;3.03;2.30;;;;;;;12.24;57.45;96576.53;4996592;28;20098;-64
2022/05/02 04:32:37;;;;;;;2.67;2.38;;;;;;;12.61;56.61;96574.03;4996477;28;20054;-64
2022/05/02 04:35:03;;;;;;;6.50;2.50;;;;;;;12.99;56.31;96575.81;4996353;28;20022;-64
2022/05/02 04:37:29;;;;;;;8.05;2.90;;;;;;;13.32;56.17;96577.75;4996383;28;20015;-63
2022/05/02 04:39:55;;;;;;;3.50;2.63;;;;;;;13.67;55.24;96574.34;4996442;28;20088;-63
2022/05/02 04:42:21;;;;;;;4.15;2.40;;;;;;;13.98;55.18;96575.41;4995980;28;20133;-61
2022/05/02 04:44:47;;;;;;;2.78;2.25;;;;;;;14.26;54.55;96573.13;4996260;28;20031;-63
2022/05/02 04:47:13;;;;;;;6.00;2.70;;;;;;;14.61;54.11;96572.19;4996020;28;20026;-62
2022/05/02 04:49:41;;;;;;;2.72;2.47;;;;;;;14.91;52.38;96569.66;4996078;28;20022;-63
2022/05/02 04:52:07;;;;;;;3.17;2.10;;;;;;;15.22;51.99;96566.25;4996082;28;20038;-61
2022/05/02 04:54:33;;;;;;;5.55;2.30;;;;;;;15.46;52.01;96561.38;4996089;28;20025;-61
2022/05/02 04:56:59;;;;;;;5.10;2.30;;;;;;;15.71;51.69;96564.41;4996044;28;20105;-64
2022/05/02 04:59:25;;;;;;;3.08;2.45;;;;;;;16.00;50.10;96559.22;4996019;28;20041;-61
2022/05/02 05:01:51;;;;;;;4.13;2.58;;;;;;;16.24;49.26;96561.31;4995908;28;20132;-63
2022/05/02 05:04:17;;;;;;;4.07;2.47;;;;;;;16.48;49.85;96563.38;4995911;28;20109;-62
2022/05/02 05:06:43;;;;;;;3.42;2.80;;;;;;;16.77;48.64;96555.47;4995731;28;20100;-62
2022/05/02 05:09:09;;;;;;;3.85;2.42;;;;;;;17.02;47.39;96559.19;4995748;28;20054;-62
2022/05/02 05:11:47;;;;;;;4.93;2.50;;;;;;;17.21;47.50;96560.66;4995883;28;20026;-62
2022/05/02 05:17:54;;;;;;;3.65;2.53;;;;;;;17.73;47.74;96561.66;4996017;28;20045;-62
2022/05/02 05:20:43;;;;;;;2.53;2.20;;;;;;;17.93;47.07;96560.34;4995684;28;20084;-63
2022/05/02 05:23:29;;;;;;;4.60;2.67;;;;;;;17.96;47.40;96569.00;4995575;28;20440;-62
2022/05/02 05:26:09;;;;;;;3.15;2.58;;;;;;;18.29;46.94;96565.91;4995481;28;20062;-63
2022/05/02 05:29:15;;;;;;;4.18;2.75;;;;;;;18.49;46.89;96570.75;4995532;28;20081;-62
2022/05/02 05:31:51;;;;;;;5.05;3.22;;;;;;;18.78;46.96;96566.06;4952420;28;20097;-62
2022/05/02 05:34:37;;;;;;;4.10;2.95;;;;;;;18.98;46.27;96570.88;4995347;28;20034;-62
2022/05/02 05:37:09;;;;;;;5.10;2.92;;;;;;;19.08;45.56;96574.59;4995347;28;20027;-63
2022/05/02 05:39:49;;;;;;;3.60;2.80;;;;;;;18.77;46.26;96574.09;4995216;28;20050;-63
2022/05/02 05:42:34;;;;;;;3.83;2.83;;;;;;;18.76;45.99;96564.47;4994987;28;20049;-62
2022/05/02 05:45:10;;;;;;;6.38;3.30;;;;;;;19.24;43.87;96576.13;4995241;28;20061;-63
2022/05/02 05:47:56;;;;;;;4.00;2.88;;;;;;;19.66;42.26;96579.22;4995221;28;20120;-62
2022/05/02 05:50:24;;;;;;;5.70;2.50;;;;;;;19.58;41.51;96576.31;4995165;28;20502;-62
2022/05/02 05:53:14;;;;;;;3.45;2.88;;;;;;;19.93;44.63;96578.13;4994962;28;20030;-63
2022/05/02 05:56:03;;;;;;;;;;;;;;;19.90;40.85;96588.13;4995443;28;20066;-63
2022/05/02 05:59:03;;;;;;;5.78;2.00;;;;;;;20.09;37.33;96590.25;4994978;28;20422;-62
2022/05/02 06:01:32;;;;;;;3.92;2.10;;;;;;;20.26;38.97;96594.25;4994849;28;20073;-62
2022/05/02 06:04:07;;;;;;;3.30;2.28;;;;;;;20.44;37.06;96584.03;4994729;28;20365;-63
2022/05/02 06:06:35;;;;;;;5.20;2.78;;;;;;;20.42;41.05;96585.97;4994636;28;20045;-62
2022/05/02 06:09:01;;;;;;;3.03;1.73;;;;;;;20.74;37.34;96583.56;4994683;28;20030;-62
2022/05/02 06:11:28;;;;;;;3.65;1.88;;;;;;;20.40;34.92;96581.72;4994706;28;20048;-62
2022/05/02 06:13:58;;;;;;;3.58;1.67;;;;;;;19.77;35.64;96589.03;4994591;28;20034;-62
2022/05/02 06:19:15;;;;;;;2.92;1.98;;;;;;;18.70;38.77;96589.59;4994836;28;20049;-62
2022/05/02 06:21:43;;;;;;;1.67;1.58;;;;;;;18.47;38.62;96583.25;4994590;28;20033;-62
2022/05/02 06:24:13;;;;;;;3.13;1.90;;;;;;;18.05;39.23;96582.47;4993939;28;20054;-61
2022/05/02 06:26:40;;;;;;;6.32;2.45;;;;;;;17.28;40.60;96586.59;4994336;28;20420;-61
2022/05/02 06:29:08;;;;;;;3.45;2.13;;;;;;;17.16;40.99;96593.50;4994286;28;20088;-62
2022/05/02 06:31:44;;;;;;;3.42;1.88;;;;;;;17.26;40.97;96591.16;4994270;28;20045;-62
2022/05/02 06:34:11;;;;;;;4.25;2.20;;;;;;;17.26;40.73;96601.72;4994211;28;20034;-62
2022/05/02 06:36:48;;;;;;;3.38;1.92;;;;;;;17.05;42.43;96599.47;4994302;28;20030;-62
2022/05/02 06:39:44;;;;;;;2.35;2.10;;;;;;;17.00;41.88;96604.19;4994121;28;20121;-62
2022/05/02 06:42:16;;;;;;;3.17;1.90;;;;;;;17.26;41.62;96606.16;4993863;28;20138;-61
2022/05/02 06:45:06;;;;;;;3.35;2.05;;;;;;;17.72;44.88;96601.44;4994082;28;20101;-63
2022/05/02 06:47:50;;;;;;;4.85;2.40;;;;;;;17.90;41.67;96597.59;4994098;28;20061;-62
2022/05/02 06:50:18;;;;;;;2.83;1.85;;;;;;;17.60;40.19;96597.81;4994143;28;20117;-63
2022/05/02 06:53:08;;;;;;;4.20;2.30;;;;;;;17.39;41.45;96591.19;4993867;28;20023;-63
2022/05/02 06:55:48;;;;;;;10.02;2.17;;;;;;;17.83;42.16;96583.06;4993938;28;20100;-63
2022/05/02 06:58:45;;;;;;;4.05;2.20;;;;;;;17.86;39.75;96582.88;4993867;28;20034;-63
2022/05/02 07:01:39;;;;;;;7.30;2.28;;;;;;;18.09;42.57;96576.97;4993912;28;20034;-61
2022/05/02 07:04:49;;;;;;;4.90;1.98;;;;;;;18.16;41.63;96595.03;4993908;28;20054;-63
2022/05/02 07:07:37;;;;;;;3.67;1.90;;;;;;;18.70;39.86;96589.59;4993795;28;20037;-63
2022/05/02 07:10:04;;;;;;;2.67;1.98;;;;;;;18.42;38.78;96594.16;4993782;28;20046;-62
2022/05/02 07:12:40;;;;;;;4.28;2.38;;;;;;;18.27;40.31;96585.50;4993741;28;20035;-63
2022/05/02 07:15:13;;;;;;;3.83;2.30;;;;;;;18.04;40.70;96583.44;4993670;28;20536;-63
2022/05/02 07:17:55;;;;;;;3.03;2.05;;;;;;;17.97;39.22;96582.13;4993657;28;20042;-63
2022/05/02 07:20:42;;;;;;;4.18;1.95;;;;;;;17.86;40.97;96579.38;4993639;28;20032;-63
2022/05/02 07:23:22;;;;;;;3.60;2.30;;;;;;;17.65;40.50;96585.16;4993605;28;20038;-63
2022/05/02 07:26:02;;;;;;;2.33;1.83;;;;;;;17.58;39.27;96578.56;4993645;28;20089;-62
2022/05/02 07:28:46;;;;;;;4.40;1.73;;;;;;;17.40;40.01;96579.66;4993591;28;20030;-63
2022/05/02 07:31:22;;;;;;;3.55;2.25;;;;;;;17.42;41.19;96576.91;4993522;28;20638;-63
2022/05/02 07:33:51;;;;;;;4.60;2.17;;;;;;;17.32;40.95;96574.03;4993550;28;20041;-63
2022/05/02 07:36:20;;;;;;;5.53;1.90;;;;;;;17.24;40.41;96578.94;4994242;28;20121;-62
2022/05/02 07:38:50;;;;;;;5.13;1.92;;;;;;;17.07;40.01;96580.06;4997448;28;20026;-62
2022/05/02 07:41:24;;;;;;;5.57;2.10;;;;;;;17.16;41.95;96582.94;4997121;28;20037;-62
2022/05/02 07:43:59;;;;;;;6.68;2.47;;;;;;;16.91;41.22;96587.13;4997338;28;20074;-61
2022/05/02 07:46:31;;;;;;;5.35;2.03;;;;;;;16.89;41.55;96578.44;4997504;28;20380;-63
2022/05/02 07:48:58;;;;;;;2.75;2.03;;;;;;;16.78;40.42;96576.50;4997481;28;20054;-62
2022/05/02 07:51:25;;;;;;;5.40;2.15;;;;;;;16.62;41.83;96581.84;4997349;28;20022;-63
2022/05/02 07:53:52;;;;;;;3.53;2.20;;;;;;;16.73;41.51;96575.06;4997139;28;20373;-61
2022/05/02 07:56:24;;;;;;;2.30;1.98;;;;;;;17.07;41.78;96574.78;4979689;28;20023;-64
2022/05/02 07:58:53;;;;;;;3.88;1.77;;;;;;;17.01;41.68;96575.97;4997287;28;20080;-63
2022/05/02 08:01:20;;;;;;;7.28;1.50;;;;;;;17.17;40.03;96573.22;4997088;28;20439;-62
2022/05/02 08:03:46;;;;;;;2.03;1.60;;;;;;;16.89;40.18;96572.31;4997022;28;20032;-62
2022/05/02 08:06:33;;;;;;;2.90;1.63;;;;;;;17.04;41.22;96560.75;4996880;28;20109;-62
2022/05/02 08:09:26;;;;;;;3.08;2.13;;;;;;;16.83;39.86;96570.94;4997103;28;20054;-63
2022/05/02 08:12:11;;;;;;;3.50;2.00;;;;;;;16.48;40.89;96568.66;4997010;28;20038;-63
2022/05/02 08:15:11;;;;;;;3.50;1.92;;;;;;;16.49;40.32;96565.94;4996860;28;20026;-62
2022/05/02 08:17:36;;;;;;;2.38;1.90;;;;;;;16.42;40.74;96567.25;4996928;28;20038;-64
2022/05/02 08:20:03;;;;;;;5.93;1.90;;;;;;;16.40;41.10;96559.44;4996829;28;20022;-63
2022/05/02 08:29:06;;;;;;;4.90;1.80;;;;;;;16.82;41.21;96534.03;4966832;28;20401;-63
2022/05/02 08:31:41;;;;;;;4.82;2.08;;;;;;;16.55;41.94;96533.03;4996736;28;20444;-63
2022/05/02 08:34:33;;;;;;;2.40;1.77;;;;;;;16.37;41.72;96535.88;4996539;28;20042;-63
2022/05/02 08:37:23;;;;;;;2.17;1.90;;;;;;;16.07;42.92;96525.41;4996479;28;20451;-64
2022/05/02 08:39:53;;;;;;;;;;;;;;;16.63;42.91;96517.56;4996919;28;20030;-63
2022/05/02 08:42:42;;;;;;;2.10;1.90;;;;;;;17.20;42.24;96522.81;4996268;28;19924;-62
2022/05/02 08:45:35;;;;;;;5.15;2.05;;;;;;;17.38;44.22;96506.69;4996478;28;20488;-63
2022/05/02 08:48:28;;;;;;;5.45;2.08;;;;;;;17.63;41.28;96505.91;4995781;28;20026;-62
2022/05/02 08:50:54;;;;;;;3.30;1.60;;;;;;;17.60;40.04;96505.25;4996264;28;20030;-64
2022/05/02 08:53:51;;;;;;;2.05;1.75;;;;;;;17.47;39.44;96490.22;4996150;28;20026;-64
2022/05/02 08:56:17;;;;;;;1.80;1.60;;;;;;;17.19;41.59;96478.84;4996124;28;20026;-62
2022/05/02 08:59:01;;;;;;;2.38;1.63;;;;;;;17.57;41.07;96477.22;4996038;28;20034;-63
2022/05/02 09:01:52;;;;;;;2.90;1.92;;;;;;;17.44;40.87;96479.84;4996136;28;20065;-62
2022/05/02 09:04:57;;;;;;;6.10;1.88;;;;;;;17.28;42.47;96467.66;4996142;28;20030;-62
2022/05/02 09:07:55;;;;;;;2.80;1.60;;;;;;;17.36;42.55;96468.94;4995721;28;20026;-64
2022/05/02 09:10:56;;;;;;;6.63;1.73;;;;;;;17.29;41.65;96466.72;4952785;28;20042;-62
2022/05/02 09:13:41;;;;;;;;;;;;;;;17.62;40.10;96463.69;4996192;28;20026;-64
2022/05/02 09:16:31;;;;;;;2.45;1.50;;;;;;;17.66;40.79;96451.94;4995842;28;20008;-62
2022/05/02 09:19:00;;;;;;;4.28;1.67;;;;;;;17.84;40.24;96448.97;4995805;28;20118;-62
2022/05/02 09:21:28;;;;;;;1.45;1.35;;;;;;;17.83;38.72;96455.25;4995780;28;20034;-61
2022/05/02 09:24:31;;;;;;;3.90;1.50;;;;;;;17.80;39.77;96458.94;4995550;28;20035;-63
2022/05/02 09:27:27;;;;;;;2.75;1.60;;;;;;;17.57;39.54;96460.53;4995526;28;20503;-63
2022/05/02 09:30:25;;;;;;;6.82;1.30;;;;;;;17.68;41.25;96452.69;4995435;28;20023;-64
2022/05/02 09:33:03;;;;;;;7.68;2.00;;;;;;;17.55;38.38;96456.16;4995432;28;20400;-64
2022/05/02 09:35:53;;;;;;;4.70;1.50;;;;;;;17.64;40.52;96453.88;4995344;28;20078;-63
2022/05/02 09:38:25;;;;;;;2.17;1.30;;;;;;;17.86;39.78;96450.59;4995395;28;20053;-63
2022/05/02 09:41:01;;;;;;;5.35;1.58;;;;;;;18.21;39.65;96453.56;4995257;28;20026;-64
2022/05/02 09:49:36;;;;;;;3.07;1.67;;;;;;;18.01;39.88;96443.38;4995473;28;20097;-62
2022/05/02 09:52:34;;;;;;;3.75;1.70;;;;;;;17.96;40.43;96434.06;4995000;28;20065;-65
2022/05/02 09:58:26;;;;;;;1.90;1.70;;;;;;;17.73;37.76;96453.22;4995040;28;20049;-63
2022/05/02 10:01:18;;;;;;;2.75;1.85;;;;;;;17.64;39.79;96438.00;4994408;28;20495;-62
2022/05/02 10:04:02;;;;;;;3.75;1.58;;;;;;;17.82;39.61;96433.22;4995047;28;20034;-64
2022/05/02 10:06:35;;;;;;;4.25;1.77;;;;;;;17.89;40.24;96431.88;4994695;28;20034;-63
2022/05/02 10:09:45;;;;;;;2.53;1.33;;;;;;;18.08;38.65;96450.88;4994737;28;20057;-64
2022/05/02 10:12:27;;;;;;;1.92;1.58;;;;;;;17.85;40.53;96448.06;4915666;29;20475;-65
2022/05/02 10:15:10;;;;;;;2.22;1.50;;;;;;;17.98;39.43;96446.25;4986415;28;20117;-63
2022/05/02 10:17:45;;;;;;;6.57;1.65;;;;;;;18.11;38.67;96448.03;4994636;28;20091;-63
2022/05/02 10:20:29;;;;;;;2.90;1.80;;;;;;;18.13;36.64;96448.78;4994610;28;20453;-63
2022/05/02 10:22:58;;;;;;;2.13;1.65;;;;;;;17.78;36.81;96458.19;4994497;28;20027;-63
2022/05/02 10:25:24;;;;;;;1.65;1.50;;;;;;;17.67;38.25;96462.41;4994268;28;20057;-64
2022/05/02 10:27:58;;;;;;;3.13;1.95;;;;;;;17.57;37.41;96447.31;4994488;28;20354;-63
2022/05/02 10:30:29;;;;;;;5.75;1.60;;;;;;;17.78;40.41;96442.31;4994487;28;20031;-62
2022/05/02 10:32:56;;;;;;;2.47;1.70;;;;;;;17.87;37.43;96438.19;4994265;28;20065;-63
2022/05/02 10:35:28;;;;;;;1.77;1.65;;;;;;;17.78;37.57;96452.91;4994272;28;20049;-62
2022/05/02 10:38:01;;;;;;;3.28;1.70;;;;;;;17.71;40.28;96439.28;4993273;28;20034;-64
2022/05/02 10:40:45;;;;;;;3.28;1.42;;;;;;;17.92;38.39;96434.28;4994225;28;20080;-63
2022/05/02 10:43:17;;;;;;;2.15;1.40;;;;;;;18.14;37.46;96450.47;4993818;28;20047;-63
2022/05/02 10:45:44;;;;;;;4.20;1.90;;;;;;;17.58;40.10;96441.88;4993940;28;20031;-64
2022/05/02 10:48:19;;;;;;;2.78;1.60;;;;;;;17.28;39.55;96429.81;4993887;28;20022;-63
2022/05/02 10:51:03;;;;;;;3.65;1.73;;;;;;;17.11;39.09;96433.56;4994050;28;20030;-63
2022/05/02 10:53:48;;;;;;;7.35;2.22;;;;;;;17.15;39.24;96430.63;4993902;28;20046;-62
2022/05/02 10:56:23;;;;;;;5.00;1.92;;;;;;;17.30;38.93;96417.31;4993890;28;20034;-62
2022/05/02 10:58:53;;;;;;;2.90;1.77;;;;;;;17.56;38.56;96425.28;4994026;28;20097;-65
2022/05/02 11:02:13;;;;;;;3.20;1.63;;;;;;;17.74;38.21;96407.31;4993235;28;20044;-64
2022/05/02 11:05:04;;;;;;;1.95;1.70;;;;;;;17.78;38.11;96405.28;4915025;29;20048;-65
2022/05/02 11:08:11;;;;;;;3.90;2.05;;;;;;;17.39;39.26;96400.84;4990710;28;20096;-64
2022/05/02 11:10:47;;;;;;;2.60;1.95;;;;;;;17.28;40.37;96382.25;4992612;28;20504;-64
2022/05/02 11:13:35;;;;;;;6.85;1.83;;;;;;;17.43;39.12;96386.47;4993737;28;20044;-64
2022/05/02 11:16:16;;;;;;;4.32;1.73;;;;;;;17.28;37.39;96379.59;4993711;28;20030;-63
2022/05/02 11:22:20;;;;;;;3.13;1.92;;;;;;;16.70;40.48;96388.59;4994037;28;20464;-64
2022/05/02 11:24:58;;;;;;;3.08;1.90;;;;;;;16.48;39.83;96382.09;4993586;28;20091;-64
2022/05/02 11:27:47;;;;;;;5.43;1.90;;;;;;;16.49;40.64;96377.63;4993440;28;20060;-63
2022/05/02 11:30:19;;;;;;;5.50;1.67;;;;;;;16.64;39.46;96379.28;4993730;28;20070;-62
2022/05/02 11:33:24;;;;;;;2.78;1.80;;;;;;;16.72;40.05;96381.44;4993480;28;20026;-65
2022/05/02 11:36:08;;;;;;;3.63;1.80;;;;;;;16.60;39.89;96374.31;4993599;28;20101;-65
2022/05/02 11:39:02;;;;;;;2.42;1.90;;;;;;;16.56;41.52;96363.13;4993502;28;20117;-62
2022/05/02 11:41:31;;;;;;;3.33;1.88;;;;;;;16.53;41.60;96371.25;4956634;28;20136;-64
2022/05/02 11:44:26;;;;;;;2.78;1.77;;;;;;;16.47;40.78;96372.50;4952689;28;20063;-63
2022/05/02 11:47:08;;;;;;;3.00;1.65;;;;;;;16.15;39.90;96378.03;4952740;29;20054;-63
2022/05/02 11:50:10;;;;;;;4.90;1.80;;;;;;;16.12;41.26;96373.78;4952499;29;20067;-64
2022/05/02 11:52:38;;;;;;;3.03;1.70;;;;;;;16.08;41.04;96364.38;4952606;29;20043;-63
2022/05/02 11:55:07;;;;;;;2.20;1.65;;;;;;;16.11;39.99;96368.63;4952559;29;20494;-63
2022/05/02 11:57:55;;;;;;;2.33;2.13;;;;;;;15.93;40.75;96366.16;4952642;28;20027;-63
2022/05/02 12:00:29;;;;;;;4.53;1.65;;;;;;;15.98;42.19;96363.28;4952630;28;20043;-64
2022/05/02 12:03:15;;;;;;;3.50;1.70;;;;;;;16.07;41.20;96354.75;4952588;29;20098;-65
2022/05/02 12:05:57;;;;;;;1.95;1.85;;;;;;;16.17;40.62;96368.22;4952384;29;20445;-63
2022/05/02 12:08:37;;;;;;;5.50;2.10;;;;;;;16.12;39.59;96352.69;4952446;28;20044;-62
2022/05/02 12:11:10;;;;;;;5.13;1.67;;;;;;;16.22;40.63;96358.22;4952559;29;20031;-64
2022/05/02 12:13:40;;;;;;;3.30;1.80;;;;;;;16.34;39.98;96361.03;4952501;29;20509;-65
2022/05/02 12:16:14;;;;;;;2.90;1.70;;;;;;;16.38;39.42;96363.34;4952515;29;20043;-62
2022/05/02 12:18:49;;;;;;;3.63;2.20;;;;;;;16.24;39.06;96364.25;4952236;29;20055;-62
2022/05/02 12:21:38;;;;;;;3.72;1.60;;;;;;;16.31;38.89;96353.31;4965123;28;20119;-64
2022/05/02 12:24:09;;;;;;;3.20;1.90;;;;;;;16.40;39.10;96347.41;4996579;28;20033;-63
2022/05/02 12:26:52;;;;;;;8.90;2.08;;;;;;;16.59;38.65;96336.53;4996670;28;20081;-62
2022/05/02 12:29:19;;;;;;;2.00;1.75;;;;;;;16.79;39.63;96326.41;4996722;28;20033;-62
2022/05/02 12:32:02;;;;;;;6.47;1.90;;;;;;;16.98;38.18;96322.56;4996561;28;20473;-63
2022/05/02 12:34:50;;;;;;;3.20;2.08;;;;;;;17.12;38.35;96329.56;4996554;28;20503;-65
2022/05/02 12:37:25;;;;;;;6.97;2.03;;;;;;;17.15;38.94;96334.63;4980046;28;20037;-63